Aérodrome :
LOGIN :

S'inscrire | Disclaimer

   EN    FR    IT 

 










Légende :    VFR   VFR Marginal   IFR   IFR Intensif   IFR Très Intensif
Visi : 
Plafond : 
>= 8 km
>= 3000ft
5 à 8 km
1000 à 3000 ft
1500m à 5 km
500 à 1000 ft
800 à 1500m
200 à 500 ft
< 800m
< 200 ft
Symboles :   Orages  Brouillard  Fortes neiges  Fortes précipitations  Vent > 20 kt
SIGMETs :   Divers  Orages  Givrage  Turbulence  Onde Orograph.  Cendres Volcan.







- Altitude de l'aérodrome : 1197 ft
- Code IATA : SPM


ETAD - Spangdahlem Ab

DERNIER METAR :
  • 172156Z AUTO 13003KT 9999 CLR 12/09 A3013 RMK AO2 SLP189 T01210088 $

METARs EXPIRÉS :
  • 172056Z AUTO 00000KT 9999 CLR 15/10 A3012 RMK AO2 SLP186 T01540097 51011 $
  • 171956Z 01008KT 9999 CLR 16/09 A3012 RMK AO2A SLP187 T01620094 $
  • 171856Z AUTO 00000KT 9999 CLR 16/08 A3010 RMK AO2 SLP182 T01560083 $

TAF AMD TAF ETAD
Valide du 17 à 21h jusqu'au 19 à 02h UTC


172126Z 1721/1902 VRB06KT 9999 FEW200 QNH3007INS
BECMG 1804/1805 VRB06KT 9000 BR FEW150 QNH3009INS
BECMG 1807/1808 05009KT 9999 NSW BKN020 QNH3014INS TX19/1814Z TN10/1805Z LAST NO AMDS AFT 1721 NEXT 1804
Pas de NOTAMs connus pour ce terrain.



MET'MAP, la Météo Aéronautique d'un coup d'oeil ! - Copyright ORBIFLY Décembre 2007 - Disclaimer

ORBIFLY MET'MAP TEAM :

Programmation & Développement : Alexandra Zaïnal
Conception & Développement : Baudouin d'Aumeries
Co-Programmation & Développement : Marc-Olivier Méhu
Soutien technique & logistique : Manuel Goepfert

Contact : metmap@orbifly.com




SOURCES & CREDITS :

   NOAA